createdAt,value
2023-03-08T00:00:45.698Z,3.20
2023-03-08T00:03:15.447Z,3.63
2023-03-08T00:05:44.180Z,2.35
2023-03-08T00:08:13.956Z,3.05
2023-03-08T00:10:41.908Z,2.55
2023-03-08T00:13:10.009Z,1.75
2023-03-08T00:15:38.577Z,3.08
2023-03-08T00:18:07.205Z,2.85
2023-03-08T00:20:35.408Z,2.53
2023-03-08T00:23:03.519Z,2.80
2023-03-08T00:25:32.823Z,2.28
2023-03-08T00:28:00.910Z,3.42
2023-03-08T00:30:31.358Z,2.63
2023-03-08T00:32:59.394Z,5.13
2023-03-08T00:35:27.515Z,3.42
2023-03-08T00:37:55.905Z,4.38
2023-03-08T00:40:23.923Z,3.38
2023-03-08T00:42:53.526Z,3.45
2023-03-08T00:45:21.576Z,3.20
2023-03-08T00:47:49.674Z,1.63
2023-03-08T00:50:18.471Z,3.60
2023-03-08T00:52:46.484Z,5.72
2023-03-08T00:55:14.529Z,2.72
2023-03-08T00:57:43.090Z,3.20
2023-03-08T01:02:42.084Z,2.13
2023-03-08T01:05:10.816Z,1.80
2023-03-08T01:07:39.089Z,2.38
2023-03-08T01:10:09.425Z,3.05
2023-03-08T01:12:39.109Z,4.22
2023-03-08T01:15:08.179Z,2.53
2023-03-08T01:17:37.771Z,3.10
2023-03-08T01:20:07.238Z,3.13
2023-03-08T01:22:35.336Z,2.13
2023-03-08T01:25:03.463Z,4.53
2023-03-08T01:27:31.699Z,3.13
2023-03-08T01:30:01.029Z,2.03
2023-03-08T01:32:29.068Z,3.05
2023-03-08T01:35:03.300Z,3.08
2023-03-08T01:37:31.849Z,2.60
2023-03-08T01:39:59.914Z,4.05
2023-03-08T01:42:28.184Z,5.35
2023-03-08T01:44:58.164Z,2.47
2023-03-08T01:47:30.328Z,3.20
2023-03-08T01:50:28.954Z,1.58
2023-03-08T01:52:59.583Z,1.95
2023-03-08T01:55:27.842Z,1.65
2023-03-08T01:57:57.458Z,2.65
2023-03-08T02:00:27.883Z,2.10
2023-03-08T02:02:59.445Z,3.72
2023-03-08T02:05:30.294Z,2.33
2023-03-08T02:08:05.557Z,3.33
2023-03-08T02:10:39.094Z,2.63
2023-03-08T02:13:08.606Z,3.35
2023-03-08T02:15:40.369Z,1.90
2023-03-08T02:18:08.813Z,2.38
2023-03-08T02:20:41.777Z,2.05
2023-03-08T02:23:13.771Z,1.63
2023-03-08T02:25:50.671Z,3.70
2023-03-08T02:28:19.919Z,2.03
2023-03-08T02:30:48.173Z,2.10
2023-03-08T02:33:16.620Z,2.05
2023-03-08T02:35:44.874Z,1.13
2023-03-08T02:38:17.752Z,2.65
2023-03-08T02:40:45.996Z,2.95
2023-03-08T02:43:14.212Z,1.50
2023-03-08T02:45:42.200Z,2.55
2023-03-08T02:48:10.549Z,1.13
2023-03-08T02:50:38.661Z,1.63
2023-03-08T02:53:07.336Z,1.75
2023-03-08T02:55:37.266Z,1.85
2023-03-08T02:58:11.924Z,2.00
2023-03-08T03:00:40.682Z,1.80
2023-03-08T03:03:08.803Z,1.42
2023-03-08T03:05:36.814Z,1.52
2023-03-08T03:08:08.040Z,1.00
2023-03-08T03:13:05.955Z,0.82
2023-03-08T03:18:02.311Z,0.88
2023-03-08T03:20:30.503Z,1.85
2023-03-08T03:22:59.897Z,1.13
2023-03-08T03:25:39.807Z,1.02
2023-03-08T03:28:11.886Z,0.98
2023-03-08T03:30:41.209Z,1.77
2023-03-08T03:33:11.515Z,0.45
2023-03-08T03:35:39.901Z,1.55
2023-03-08T03:38:09.494Z,0.52
2023-03-08T03:40:39.454Z,1.10
2023-03-08T03:43:07.660Z,1.05
2023-03-08T03:45:35.757Z,1.40
2023-03-08T03:48:03.902Z,0.52
2023-03-08T03:53:05.479Z,0.43
2023-03-08T03:55:33.461Z,0.75
2023-03-08T03:58:05.477Z,0.50
2023-03-08T04:00:34.177Z,1.23
2023-03-08T04:03:19.026Z,1.45
2023-03-08T04:05:48.065Z,1.05
2023-03-08T04:08:16.713Z,2.20
2023-03-08T04:13:15.521Z,0.30
2023-03-08T04:15:44.391Z,0.45
2023-03-08T04:18:14.567Z,1.85
2023-03-08T04:20:46.295Z,0.88
2023-03-08T04:23:15.703Z,0.93
2023-03-08T04:25:48.953Z,1.85
2023-03-08T04:28:19.281Z,0.55
2023-03-08T04:30:47.703Z,0.55
2023-03-08T04:33:18.119Z,1.05
2023-03-08T04:35:49.813Z,0.60
2023-03-08T04:38:20.821Z,0.98
2023-03-08T04:41:10.303Z,1.17
2023-03-08T04:44:12.251Z,0.40
2023-03-08T04:46:45.357Z,0.60
2023-03-08T04:49:19.198Z,0.98
2023-03-08T04:51:53.693Z,0.70
2023-03-08T04:54:23.652Z,0.47
2023-03-08T04:56:58.210Z,0.85
2023-03-08T04:59:28.301Z,0.73
2023-03-08T05:01:59.479Z,0.60
2023-03-08T05:04:29.215Z,0.95
2023-03-08T05:06:57.238Z,0.38
2023-03-08T05:09:28.391Z,0.75
2023-03-08T05:11:58.551Z,1.55
2023-03-08T05:14:35.257Z,1.48
2023-03-08T05:17:03.897Z,1.15
2023-03-08T05:19:34.457Z,0.30
2023-03-08T05:22:02.598Z,0.32
2023-03-08T05:24:32.395Z,0.70
2023-03-08T05:27:06.511Z,0.25
2023-03-08T05:29:37.358Z,0.60
2023-03-08T05:32:07.432Z,0.70
2023-03-08T05:34:35.768Z,0.73
2023-03-08T05:37:06.204Z,0.38
2023-03-08T05:39:36.550Z,0.40
2023-03-08T05:42:13.036Z,1.30
2023-03-08T05:44:45.913Z,0.32
2023-03-08T05:47:16.723Z,0.60
2023-03-08T05:49:45.701Z,0.63
2023-03-08T05:52:14.499Z,0.98
2023-03-08T05:54:43.198Z,0.75
2023-03-08T05:57:16.062Z,0.10
2023-03-08T05:59:45.410Z,0.17
2023-03-08T06:02:16.921Z,0.93
2023-03-08T06:04:49.050Z,0.43
2023-03-08T06:07:20.799Z,0.70
2023-03-08T06:09:54.823Z,0.40
2023-03-08T06:12:24.259Z,0.30
2023-03-08T06:14:57.262Z,1.20
2023-03-08T06:17:28.885Z,0.43
2023-03-08T06:19:58.462Z,0.45
2023-03-08T06:22:27.066Z,0.90
2023-03-08T06:24:56.271Z,0.20
2023-03-08T06:27:30.591Z,0.93
2023-03-08T06:30:04.192Z,0.47
2023-03-08T06:32:35.802Z,0.30
2023-03-08T06:35:04.664Z,0.55
2023-03-08T06:37:35.599Z,0.50
2023-03-08T06:40:05.904Z,0.63
2023-03-08T06:42:41.282Z,0.30
2023-03-08T06:45:13.511Z,0.10
2023-03-08T06:47:41.616Z,0.47
2023-03-08T06:50:11.936Z,0.50
2023-03-08T06:52:42.568Z,0.50
2023-03-08T06:55:12.170Z,0.10
2023-03-08T06:57:40.613Z,0.75
2023-03-08T07:00:11.444Z,2.22
2023-03-08T07:02:40.893Z,0.30
2023-03-08T07:05:09.683Z,0.85
2023-03-08T07:07:38.677Z,0.88
2023-03-08T07:10:08.491Z,1.05
2023-03-08T07:12:40.141Z,0.50
2023-03-08T07:15:09.181Z,1.45
2023-03-08T07:17:37.549Z,0.43
2023-03-08T07:20:08.771Z,0.68
2023-03-08T07:22:36.968Z,0.17
2023-03-08T07:25:05.298Z,0.82
2023-03-08T07:27:33.438Z,0.70
2023-03-08T07:30:01.624Z,0.32
2023-03-08T07:32:29.913Z,0.22
2023-03-08T07:34:58.926Z,0.73
2023-03-08T07:37:28.536Z,0.75
2023-03-08T07:39:56.491Z,0.68
2023-03-08T07:42:24.546Z,0.75
2023-03-08T07:44:57.407Z,0.20
2023-03-08T07:47:25.859Z,0.30
2023-03-08T07:49:53.939Z,0.32
2023-03-08T07:52:21.991Z,0.25
2023-03-08T07:54:51.447Z,0.55
2023-03-08T07:57:19.564Z,1.00
2023-03-08T07:59:47.645Z,0.47
2023-03-08T08:02:16.514Z,0.10
2023-03-08T08:04:44.977Z,0.50
2023-03-08T08:07:15.419Z,0.40
2023-03-08T08:09:43.949Z,1.02
2023-03-08T08:14:41.443Z,0.20
2023-03-08T08:17:09.589Z,0.20
2023-03-08T08:19:38.511Z,0.00
2023-03-08T08:22:06.578Z,0.40
2023-03-08T08:24:34.584Z,0.50
2023-03-08T08:27:02.922Z,0.77
2023-03-08T08:29:32.337Z,1.15
2023-03-08T08:32:00.542Z,1.45
2023-03-08T08:34:28.465Z,0.63
2023-03-08T08:36:56.736Z,0.65
2023-03-08T08:39:24.833Z,0.68
2023-03-08T08:41:52.953Z,1.00
2023-03-08T08:44:20.974Z,0.95
2023-03-08T08:46:50.476Z,0.57
2023-03-08T08:49:18.525Z,1.55
2023-03-08T08:51:46.725Z,0.52
2023-03-08T08:54:14.759Z,1.13
2023-03-08T08:56:43.627Z,1.70
2023-03-08T08:59:13.803Z,0.85
2023-03-08T09:01:43.937Z,3.30
2023-03-08T09:04:14.630Z,1.20
2023-03-08T09:06:43.081Z,1.13
2023-03-08T09:09:11.259Z,0.22
2023-03-08T09:11:53.296Z,0.90
2023-03-08T09:14:22.577Z,0.73
2023-03-08T09:16:50.770Z,0.57
2023-03-08T09:19:20.495Z,1.40
2023-03-08T09:21:48.810Z,2.35
2023-03-08T09:24:17.154Z,0.77
2023-03-08T09:26:45.226Z,2.75
2023-03-08T09:29:13.575Z,1.20
2023-03-08T09:31:45.315Z,1.85
2023-03-08T09:34:15.525Z,0.47
2023-03-08T09:36:45.679Z,0.75
2023-03-08T09:39:15.133Z,1.27
2023-03-08T09:41:51.724Z,0.57
2023-03-08T09:44:58.476Z,0.88
2023-03-08T09:47:33.148Z,2.25
2023-03-08T09:50:10.892Z,0.95
2023-03-08T09:52:45.477Z,0.70
2023-03-08T09:55:20.571Z,2.00
2023-03-08T09:57:53.451Z,0.57
2023-03-08T10:00:24.396Z,1.23
2023-03-08T10:03:04.001Z,1.80
2023-03-08T10:05:37.368Z,0.35
2023-03-08T10:08:14.704Z,0.63
2023-03-08T10:10:49.929Z,0.77
2023-03-08T10:13:28.870Z,1.25
2023-03-08T10:16:04.536Z,0.95
2023-03-08T10:18:38.335Z,1.33
2023-03-08T10:21:11.088Z,0.50
2023-03-08T10:23:42.543Z,0.98
2023-03-08T10:26:13.298Z,1.08
2023-03-08T10:28:41.988Z,1.17
2023-03-08T10:31:22.996Z,1.27
2023-03-08T10:33:58.851Z,1.73
2023-03-08T10:36:27.182Z,0.80
2023-03-08T10:39:06.216Z,2.05
2023-03-08T10:41:41.286Z,1.23
2023-03-08T10:46:48.159Z,1.38
2023-03-08T10:49:18.716Z,0.95
2023-03-08T10:51:55.180Z,0.50
2023-03-08T10:54:25.603Z,0.57
2023-03-08T10:56:57.346Z,1.30
2023-03-08T10:59:32.369Z,1.45
2023-03-08T11:04:31.804Z,0.85
2023-03-08T11:07:00.190Z,1.40
2023-03-08T11:09:31.549Z,2.50
2023-03-08T11:12:01.288Z,2.90
2023-03-08T11:14:30.765Z,1.55
2023-03-08T11:17:15.259Z,3.10
2023-03-08T11:19:59.773Z,1.50
2023-03-08T11:22:51.357Z,1.63
2023-03-08T11:25:33.179Z,1.65
2023-03-08T11:28:25.649Z,1.45
2023-03-08T11:31:05.587Z,2.95
2023-03-08T11:33:51.533Z,2.30
2023-03-08T11:36:25.956Z,1.05
2023-03-08T11:39:00.624Z,2.47
2023-03-08T11:41:41.478Z,2.50
2023-03-08T11:44:27.219Z,0.50
2023-03-08T11:47:11.675Z,1.10
2023-03-08T11:50:05.905Z,1.70
2023-03-08T11:52:43.562Z,2.13
2023-03-08T11:55:29.775Z,1.52
2023-03-08T11:58:04.668Z,1.20
2023-03-08T12:03:13.088Z,2.20
2023-03-08T12:05:45.545Z,1.88
2023-03-08T12:08:18.196Z,2.63
2023-03-08T12:10:52.398Z,1.60
2023-03-08T12:13:26.378Z,2.15
2023-03-08T12:15:58.803Z,2.40
2023-03-08T12:18:33.275Z,1.55
2023-03-08T12:21:10.080Z,2.53
2023-03-08T12:23:47.876Z,1.35
2023-03-08T12:26:21.712Z,2.00
2023-03-08T12:28:55.331Z,2.38
2023-03-08T12:31:29.528Z,0.98
2023-03-08T12:34:00.461Z,2.80
2023-03-08T12:36:39.487Z,2.97
2023-03-08T12:39:09.946Z,1.42
2023-03-08T12:41:38.338Z,2.17
2023-03-08T12:44:23.926Z,2.13
2023-03-08T12:47:02.729Z,0.88
2023-03-08T12:49:34.559Z,2.38
2023-03-08T12:52:06.465Z,1.35
2023-03-08T12:54:36.826Z,0.82
2023-03-08T12:57:16.190Z,3.53
2023-03-08T12:59:46.275Z,4.50
2023-03-08T13:02:29.487Z,2.20
2023-03-08T13:05:06.382Z,3.42
2023-03-08T13:07:40.303Z,1.58
2023-03-08T13:10:20.141Z,2.80
2023-03-08T13:13:02.556Z,2.63
2023-03-08T13:15:32.216Z,1.98
2023-03-08T13:18:05.822Z,2.15
2023-03-08T13:20:58.361Z,1.48
2023-03-08T13:23:32.730Z,2.70
2023-03-08T13:26:22.599Z,2.20
2023-03-08T13:28:51.166Z,4.80
2023-03-08T13:33:51.856Z,2.53
2023-03-08T13:36:22.253Z,3.22
2023-03-08T13:38:59.216Z,0.88
2023-03-08T13:41:38.334Z,0.73
2023-03-08T13:44:08.492Z,1.33
2023-03-08T13:46:42.572Z,6.95
2023-03-08T13:49:17.863Z,2.78
2023-03-08T13:51:48.647Z,2.05
2023-03-08T13:54:23.469Z,1.55
2023-03-08T13:56:54.315Z,1.95
2023-03-08T13:59:23.123Z,3.80
2023-03-08T14:01:53.964Z,3.45
2023-03-08T14:04:24.484Z,3.80
2023-03-08T14:06:55.193Z,3.67
2023-03-08T14:09:24.013Z,3.13
2023-03-08T14:11:59.491Z,3.50
2023-03-08T14:14:31.993Z,2.67
2023-03-08T14:17:02.690Z,2.17
2023-03-08T14:19:34.294Z,2.22
2023-03-08T14:22:05.111Z,3.35
2023-03-08T14:24:35.552Z,2.85
2023-03-08T14:27:08.279Z,2.25
2023-03-08T14:29:37.648Z,3.45
2023-03-08T14:32:28.028Z,1.67
2023-03-08T14:35:06.626Z,2.70
2023-03-08T14:37:36.507Z,1.92
2023-03-08T14:40:26.584Z,1.95
2023-03-08T14:42:56.964Z,2.50
2023-03-08T14:45:28.239Z,4.25
2023-03-08T14:47:59.688Z,3.60
2023-03-08T14:50:30.613Z,2.85
2023-03-08T14:53:01.042Z,2.58
2023-03-08T14:55:31.694Z,3.50
2023-03-08T14:58:02.396Z,3.05
2023-03-08T15:00:31.725Z,2.08
2023-03-08T15:03:01.797Z,2.70
2023-03-08T15:05:30.881Z,4.82
2023-03-08T15:08:00.551Z,3.40
2023-03-08T15:10:32.946Z,6.88
2023-03-08T15:13:01.435Z,2.40
2023-03-08T15:15:29.523Z,1.90
2023-03-08T15:17:57.671Z,3.33
2023-03-08T15:20:27.017Z,3.83
2023-03-08T15:22:57.961Z,4.47
2023-03-08T15:25:28.453Z,2.55
2023-03-08T15:27:56.782Z,2.08
2023-03-08T15:30:26.520Z,3.22
2023-03-08T15:32:54.936Z,2.13
2023-03-08T15:40:23.282Z,1.73
2023-03-08T15:42:51.387Z,2.88
2023-03-08T15:45:19.474Z,4.72
2023-03-08T15:47:57.246Z,3.97
2023-03-08T15:50:25.868Z,3.60
2023-03-08T15:55:25.363Z,2.15
2023-03-08T15:57:53.385Z,1.63
2023-03-08T16:00:23.832Z,1.92
2023-03-08T16:02:53.982Z,3.17
2023-03-08T16:05:24.983Z,2.10
2023-03-08T16:07:59.883Z,2.55
2023-03-08T16:12:57.494Z,2.28
2023-03-08T16:15:25.654Z,4.30
2023-03-08T16:17:53.706Z,1.30
2023-03-08T16:20:23.263Z,2.35
2023-03-08T16:22:51.830Z,2.28
2023-03-08T16:27:51.841Z,1.60
2023-03-08T16:30:20.661Z,2.85
2023-03-08T16:32:49.147Z,4.57
2023-03-08T16:35:17.426Z,3.78
2023-03-08T16:37:45.490Z,1.92
2023-03-08T16:40:14.364Z,2.75
2023-03-08T16:42:43.881Z,2.80
2023-03-08T16:45:16.600Z,0.75
2023-03-08T16:47:44.635Z,2.97
2023-03-08T16:50:13.353Z,2.75
2023-03-08T16:52:41.463Z,1.98
2023-03-08T16:55:10.412Z,1.90
2023-03-08T16:57:39.648Z,3.00
2023-03-08T17:00:12.803Z,3.10
2023-03-08T17:02:41.282Z,1.75
2023-03-08T17:05:11.118Z,3.10
2023-03-08T17:07:39.624Z,1.38
2023-03-08T17:12:36.549Z,2.60
2023-03-08T17:15:05.514Z,2.58
2023-03-08T17:17:34.786Z,3.90
2023-03-08T17:20:03.019Z,2.75
2023-03-08T17:22:33.728Z,1.83
2023-03-08T17:25:02.106Z,1.98
2023-03-08T17:27:30.044Z,2.55
2023-03-08T17:30:00.657Z,3.85
2023-03-08T17:32:28.964Z,2.47
2023-03-08T17:34:58.617Z,3.33
2023-03-08T17:37:26.955Z,2.22
2023-03-08T17:39:55.122Z,1.55
2023-03-08T17:42:23.699Z,3.20
2023-03-08T17:44:51.907Z,4.75
2023-03-08T17:47:19.921Z,1.58
2023-03-08T17:49:48.113Z,3.92
2023-03-08T17:52:18.011Z,3.00
2023-03-08T17:54:46.359Z,2.92
2023-03-08T17:57:15.991Z,3.67
2023-03-08T17:59:44.034Z,4.13
2023-03-08T18:02:12.794Z,3.45
2023-03-08T18:04:44.460Z,4.20
2023-03-08T18:07:13.213Z,4.40
2023-03-08T18:09:43.157Z,2.50
2023-03-08T18:12:11.758Z,4.20
2023-03-08T18:14:40.335Z,4.63
2023-03-08T18:19:36.313Z,3.78
2023-03-08T18:22:05.686Z,2.50
2023-03-08T18:24:34.154Z,5.38
2023-03-08T18:27:05.415Z,3.95
2023-03-08T18:29:34.934Z,5.30
2023-03-08T18:32:03.628Z,4.63
2023-03-08T18:37:00.032Z,2.58
2023-03-08T18:39:28.222Z,3.60
2023-03-08T18:41:56.970Z,3.75
2023-03-08T18:44:26.525Z,2.15
2023-03-08T18:46:54.750Z,5.68
2023-03-08T18:49:23.147Z,2.78
2023-03-08T18:51:51.300Z,2.55
2023-03-08T18:54:20.811Z,3.78
2023-03-08T18:56:53.694Z,5.50
2023-03-08T18:59:22.329Z,2.78
2023-03-08T19:01:52.220Z,6.00
2023-03-08T19:04:20.651Z,3.38
2023-03-08T19:06:48.841Z,3.90
2023-03-08T19:09:18.315Z,2.50
2023-03-08T19:11:48.162Z,3.78
2023-03-08T19:14:17.468Z,2.30
2023-03-08T19:16:45.703Z,3.47
2023-03-08T19:19:16.995Z,4.78
2023-03-08T19:21:46.957Z,4.18
2023-03-08T19:24:16.312Z,3.30
2023-03-08T19:26:47.430Z,4.13
2023-03-08T19:29:17.461Z,3.42
2023-03-08T19:31:47.599Z,4.45
2023-03-08T19:34:17.705Z,3.88
2023-03-08T19:36:47.329Z,4.85
2023-03-08T19:39:17.800Z,4.90
2023-03-08T19:41:46.138Z,2.70
2023-03-08T19:44:14.372Z,3.60
2023-03-08T19:46:42.925Z,3.08
2023-03-08T19:51:44.652Z,2.13
2023-03-08T19:54:13.466Z,3.05
2023-03-08T19:56:41.654Z,2.40
2023-03-08T19:59:10.057Z,6.63
2023-03-08T20:01:38.422Z,3.92
2023-03-08T20:04:07.136Z,2.88
2023-03-08T20:06:38.906Z,4.57
2023-03-08T20:09:12.139Z,4.50
2023-03-08T20:11:40.935Z,3.30
2023-03-08T20:14:09.712Z,3.25
2023-03-08T20:16:38.626Z,3.55
2023-03-08T20:19:07.210Z,3.53
2023-03-08T20:21:35.268Z,3.92
2023-03-08T20:24:04.230Z,3.03
2023-03-08T20:26:35.573Z,3.88
2023-03-08T20:29:04.572Z,2.38
2023-03-08T20:31:33.904Z,3.45
2023-03-08T20:34:02.351Z,4.93
2023-03-08T20:36:30.579Z,3.10
2023-03-08T20:38:59.138Z,2.50
2023-03-08T20:41:27.651Z,4.28
2023-03-08T20:46:31.259Z,1.77
2023-03-08T20:48:59.884Z,3.13
2023-03-08T20:53:56.953Z,4.22
2023-03-08T20:56:26.549Z,1.98
2023-03-08T20:59:00.522Z,4.57
2023-03-08T21:01:31.063Z,5.05
2023-03-08T21:03:59.344Z,4.18
2023-03-08T21:06:30.200Z,4.13
2023-03-08T21:09:00.198Z,5.63
2023-03-08T21:11:28.690Z,3.72
2023-03-08T21:13:58.312Z,3.50
2023-03-08T21:16:27.572Z,1.17
2023-03-08T21:18:57.097Z,5.32
2023-03-08T21:21:29.056Z,1.50
2023-03-08T21:23:58.030Z,3.08
2023-03-08T21:26:28.229Z,3.05
2023-03-08T21:29:01.638Z,2.97
2023-03-08T21:31:30.614Z,4.07
2023-03-08T21:33:58.870Z,2.72
2023-03-08T21:36:26.891Z,2.88
2023-03-08T21:38:56.404Z,6.03
2023-03-08T21:41:26.404Z,3.55
2023-03-08T21:43:54.730Z,3.92
2023-03-08T21:46:24.924Z,3.13
2023-03-08T21:48:52.974Z,4.43
2023-03-08T21:51:20.985Z,3.58
2023-03-08T21:53:49.348Z,3.60
2023-03-08T21:56:18.714Z,3.00
2023-03-08T21:58:47.166Z,2.53
2023-03-08T22:03:48.737Z,2.40
2023-03-08T22:06:16.969Z,2.63
2023-03-08T22:08:44.962Z,2.40
2023-03-08T22:11:13.138Z,2.15
2023-03-08T22:13:41.411Z,3.85
2023-03-08T22:16:09.866Z,2.42
2023-03-08T22:18:38.009Z,3.75
2023-03-08T22:21:07.468Z,2.47
2023-03-08T22:23:35.689Z,2.97
2023-03-08T22:26:08.152Z,3.45
2023-03-08T22:28:36.704Z,5.45
2023-03-08T22:31:10.175Z,2.35
2023-03-08T22:33:38.579Z,1.35
2023-03-08T22:36:10.660Z,1.75
2023-03-08T22:38:39.639Z,2.90
2023-03-08T22:41:10.633Z,2.42
2023-03-08T22:43:38.734Z,2.63
2023-03-08T22:46:08.607Z,2.00
2023-03-08T22:48:36.938Z,2.47
2023-03-08T22:51:11.234Z,3.28
2023-03-08T22:53:41.309Z,1.63
2023-03-08T22:56:17.696Z,2.63
2023-03-08T22:58:45.870Z,3.17
2023-03-08T23:01:15.451Z,3.47
2023-03-08T23:03:43.820Z,2.25
2023-03-08T23:06:11.800Z,2.28
2023-03-08T23:08:41.165Z,4.05
2023-03-08T23:11:09.560Z,3.63
2023-03-08T23:13:38.042Z,3.03
2023-03-08T23:18:36.295Z,1.73
2023-03-08T23:23:33.123Z,3.20
2023-03-08T23:26:04.103Z,3.45
2023-03-08T23:28:35.421Z,2.50
2023-03-08T23:31:03.752Z,4.07
2023-03-08T23:33:32.047Z,3.30
2023-03-08T23:36:00.104Z,4.28
2023-03-08T23:38:28.462Z,6.55
2023-03-08T23:40:56.499Z,3.80
2023-03-08T23:43:26.152Z,5.10
2023-03-08T23:45:54.101Z,5.78
2023-03-08T23:48:22.217Z,3.35
2023-03-08T23:50:50.310Z,3.53
2023-03-08T23:53:18.374Z,4.10
2023-03-08T23:55:46.472Z,3.58
2023-03-08T23:58:14.546Z,5.30
